sensor_id;sensor_type;location;lat;lon;timestamp;pressure;altitude;pressure_sealevel;temperature;humidity
46876;BME280;32866;50.160;14.768;2023-05-07T00:01:32;99661.63;;;10.72;100.00
46876;BME280;32866;50.160;14.768;2023-05-07T00:03:57;99657.91;;;10.66;100.00
46876;BME280;32866;50.160;14.768;2023-05-07T00:06:22;99654.31;;;10.69;100.00
46876;BME280;32866;50.160;14.768;2023-05-07T00:08:48;99663.28;;;10.70;100.00
46876;BME280;32866;50.160;14.768;2023-05-07T00:11:13;99669.91;;;10.85;100.00
46876;BME280;32866;50.160;14.768;2023-05-07T00:13:39;99644.72;;;10.61;100.00
46876;BME280;32866;50.160;14.768;2023-05-07T00:16:04;99662.59;;;10.66;100.00
46876;BME280;32866;50.160;14.768;2023-05-07T00:18:30;99667.50;;;10.58;100.00
46876;BME280;32866;50.160;14.768;2023-05-07T00:20:56;99672.13;;;10.61;100.00
46876;BME280;32866;50.160;14.768;2023-05-07T00:23:22;99662.03;;;10.58;100.00
46876;BME280;32866;50.160;14.768;2023-05-07T00:25:47;99670.69;;;10.86;100.00
46876;BME280;32866;50.160;14.768;2023-05-07T00:28:12;99662.53;;;10.69;100.00
46876;BME280;32866;50.160;14.768;2023-05-07T00:30:38;99670.75;;;10.69;100.00
46876;BME280;32866;50.160;14.768;2023-05-07T00:33:03;99672.56;;;10.60;100.00
46876;BME280;32866;50.160;14.768;2023-05-07T00:35:29;99679.81;;;10.66;100.00
46876;BME280;32866;50.160;14.768;2023-05-07T00:37:55;99663.94;;;10.45;100.00
46876;BME280;32866;50.160;14.768;2023-05-07T00:40:20;99650.31;;;10.25;100.00
46876;BME280;32866;50.160;14.768;2023-05-07T00:42:46;99675.72;;;10.58;100.00
46876;BME280;32866;50.160;14.768;2023-05-07T00:45:13;99671.44;;;10.57;100.00
46876;BME280;32866;50.160;14.768;2023-05-07T00:47:39;99669.13;;;10.55;100.00
46876;BME280;32866;50.160;14.768;2023-05-07T00:50:04;99671.28;;;10.64;100.00
46876;BME280;32866;50.160;14.768;2023-05-07T00:52:30;99676.06;;;10.60;100.00
46876;BME280;32866;50.160;14.768;2023-05-07T00:54:56;99657.59;;;10.15;100.00
46876;BME280;32866;50.160;14.768;2023-05-07T00:57:24;99649.22;;;10.06;100.00
46876;BME280;32866;50.160;14.768;2023-05-07T00:59:50;99682.47;;;10.20;100.00
46876;BME280;32866;50.160;14.768;2023-05-07T01:02:16;99647.34;;;10.19;100.00
46876;BME280;32866;50.160;14.768;2023-05-07T01:04:42;99680.69;;;10.30;100.00
46876;BME280;32866;50.160;14.768;2023-05-07T01:07:07;99667.34;;;10.16;100.00
46876;BME280;32866;50.160;14.768;2023-05-07T01:09:33;99680.34;;;10.12;100.00
46876;BME280;32866;50.160;14.768;2023-05-07T01:12:00;99682.06;;;10.06;100.00
46876;BME280;32866;50.160;14.768;2023-05-07T01:14:26;99671.78;;;9.93;100.00
46876;BME280;32866;50.160;14.768;2023-05-07T01:16:52;99677.84;;;9.84;100.00
46876;BME280;32866;50.160;14.768;2023-05-07T01:19:18;99678.94;;;9.71;100.00
46876;BME280;32866;50.160;14.768;2023-05-07T01:21:48;99687.41;;;9.76;100.00
46876;BME280;32866;50.160;14.768;2023-05-07T01:24:14;99688.22;;;9.57;100.00
46876;BME280;32866;50.160;14.768;2023-05-07T01:26:39;99690.91;;;9.40;100.00
46876;BME280;32866;50.160;14.768;2023-05-07T01:29:05;99669.66;;;9.08;100.00
46876;BME280;32866;50.160;14.768;2023-05-07T01:31:32;99656.84;;;9.05;100.00
46876;BME280;32866;50.160;14.768;2023-05-07T01:33:59;99685.38;;;9.24;100.00
46876;BME280;32866;50.160;14.768;2023-05-07T01:36:25;99663.38;;;9.11;100.00
46876;BME280;32866;50.160;14.768;2023-05-07T01:38:52;99687.81;;;9.18;100.00
46876;BME280;32866;50.160;14.768;2023-05-07T01:41:19;99665.06;;;8.85;100.00
46876;BME280;32866;50.160;14.768;2023-05-07T01:43:45;99683.47;;;9.01;100.00
46876;BME280;32866;50.160;14.768;2023-05-07T01:46:12;99695.56;;;9.03;100.00
46876;BME280;32866;50.160;14.768;2023-05-07T01:48:38;99704.94;;;9.22;100.00
46876;BME280;32866;50.160;14.768;2023-05-07T01:51:04;99707.59;;;9.26;100.00
46876;BME280;32866;50.160;14.768;2023-05-07T01:53:36;99693.84;;;9.29;100.00
46876;BME280;32866;50.160;14.768;2023-05-07T01:56:01;99668.13;;;9.27;100.00
46876;BME280;32866;50.160;14.768;2023-05-07T01:58:27;99695.91;;;9.45;100.00
46876;BME280;32866;50.160;14.768;2023-05-07T02:00:52;99697.06;;;9.44;100.00
46876;BME280;32866;50.160;14.768;2023-05-07T02:03:17;99698.34;;;9.40;100.00
46876;BME280;32866;50.160;14.768;2023-05-07T02:05:43;99692.75;;;9.47;100.00
46876;BME280;32866;50.160;14.768;2023-05-07T02:08:08;99677.31;;;9.37;100.00
46876;BME280;32866;50.160;14.768;2023-05-07T02:10:33;99676.31;;;9.47;100.00
46876;BME280;32866;50.160;14.768;2023-05-07T02:12:59;99693.13;;;9.65;100.00
46876;BME280;32866;50.160;14.768;2023-05-07T02:15:26;99686.94;;;9.61;100.00
46876;BME280;32866;50.160;14.768;2023-05-07T02:18:03;99692.19;;;9.72;100.00
46876;BME280;32866;50.160;14.768;2023-05-07T02:20:29;99695.69;;;9.73;100.00
46876;BME280;32866;50.160;14.768;2023-05-07T02:22:54;99665.97;;;9.55;100.00
46876;BME280;32866;50.160;14.768;2023-05-07T02:25:20;99681.81;;;9.63;100.00
46876;BME280;32866;50.160;14.768;2023-05-07T02:27:45;99658.06;;;9.60;100.00
46876;BME280;32866;50.160;14.768;2023-05-07T02:30:10;99689.09;;;9.70;100.00
46876;BME280;32866;50.160;14.768;2023-05-07T02:32:36;99695.66;;;9.56;100.00
46876;BME280;32866;50.160;14.768;2023-05-07T02:35:01;99690.69;;;9.51;100.00
46876;BME280;32866;50.160;14.768;2023-05-07T02:37:27;99678.00;;;9.41;100.00
46876;BME280;32866;50.160;14.768;2023-05-07T02:39:52;99705.59;;;9.66;100.00
46876;BME280;32866;50.160;14.768;2023-05-07T02:42:18;99702.53;;;9.64;100.00
46876;BME280;32866;50.160;14.768;2023-05-07T02:44:43;99677.94;;;9.44;100.00
46876;BME280;32866;50.160;14.768;2023-05-07T02:47:08;99668.22;;;9.23;100.00
46876;BME280;32866;50.160;14.768;2023-05-07T02:49:34;99692.19;;;9.36;100.00
46876;BME280;32866;50.160;14.768;2023-05-07T02:52:00;99693.41;;;9.51;100.00
46876;BME280;32866;50.160;14.768;2023-05-07T02:54:25;99688.94;;;9.41;100.00
46876;BME280;32866;50.160;14.768;2023-05-07T02:56:51;99679.41;;;9.49;100.00
46876;BME280;32866;50.160;14.768;2023-05-07T02:59:16;99707.19;;;9.84;100.00
46876;BME280;32866;50.160;14.768;2023-05-07T03:01:41;99705.91;;;9.52;100.00
46876;BME280;32866;50.160;14.768;2023-05-07T03:04:09;99695.53;;;9.43;100.00
46876;BME280;32866;50.160;14.768;2023-05-07T03:06:35;99680.19;;;9.29;100.00
46876;BME280;32866;50.160;14.768;2023-05-07T03:09:01;99683.00;;;9.26;100.00
46876;BME280;32866;50.160;14.768;2023-05-07T03:11:26;99685.56;;;9.53;100.00
46876;BME280;32866;50.160;14.768;2023-05-07T03:13:52;99691.69;;;9.41;100.00
46876;BME280;32866;50.160;14.768;2023-05-07T03:16:17;99687.81;;;9.18;100.00
46876;BME280;32866;50.160;14.768;2023-05-07T03:18:43;99705.19;;;9.48;100.00
46876;BME280;32866;50.160;14.768;2023-05-07T03:21:08;99668.56;;;9.25;100.00
46876;BME280;32866;50.160;14.768;2023-05-07T03:23:33;99711.16;;;9.63;100.00
46876;BME280;32866;50.160;14.768;2023-05-07T03:25:59;99689.94;;;9.51;100.00
46876;BME280;32866;50.160;14.768;2023-05-07T03:28:24;99688.72;;;9.32;100.00
46876;BME280;32866;50.160;14.768;2023-05-07T03:30:50;99697.72;;;9.52;100.00
46876;BME280;32866;50.160;14.768;2023-05-07T03:33:15;99690.19;;;9.56;100.00
46876;BME280;32866;50.160;14.768;2023-05-07T03:35:41;99711.06;;;9.66;100.00
46876;BME280;32866;50.160;14.768;2023-05-07T03:38:07;99702.03;;;9.50;100.00
46876;BME280;32866;50.160;14.768;2023-05-07T03:40:32;99718.72;;;9.75;100.00
46876;BME280;32866;50.160;14.768;2023-05-07T03:42:59;99691.34;;;9.39;100.00
46876;BME280;32866;50.160;14.768;2023-05-07T03:45:25;99701.63;;;9.51;100.00
46876;BME280;32866;50.160;14.768;2023-05-07T03:47:50;99720.03;;;9.87;100.00
46876;BME280;32866;50.160;14.768;2023-05-07T03:50:16;99711.13;;;9.83;100.00
46876;BME280;32866;50.160;14.768;2023-05-07T03:52:41;99726.34;;;9.84;100.00
46876;BME280;32866;50.160;14.768;2023-05-07T03:55:07;99713.69;;;9.74;100.00
46876;BME280;32866;50.160;14.768;2023-05-07T03:57:33;99716.66;;;9.79;100.00
46876;BME280;32866;50.160;14.768;2023-05-07T03:59:58;99718.28;;;9.77;100.00
46876;BME280;32866;50.160;14.768;2023-05-07T04:02:23;99704.38;;;9.88;100.00
46876;BME280;32866;50.160;14.768;2023-05-07T04:04:49;99697.75;;;9.69;100.00
46876;BME280;32866;50.160;14.768;2023-05-07T04:07:15;99718.97;;;9.81;100.00
46876;BME280;32866;50.160;14.768;2023-05-07T04:09:40;99709.31;;;9.76;100.00
46876;BME280;32866;50.160;14.768;2023-05-07T04:12:06;99696.53;;;9.70;100.00
46876;BME280;32866;50.160;14.768;2023-05-07T04:14:31;99709.94;;;9.84;100.00
46876;BME280;32866;50.160;14.768;2023-05-07T04:16:58;99709.03;;;9.71;100.00
46876;BME280;32866;50.160;14.768;2023-05-07T04:19:24;99702.31;;;9.75;100.00
46876;BME280;32866;50.160;14.768;2023-05-07T04:21:50;99704.97;;;9.95;100.00
46876;BME280;32866;50.160;14.768;2023-05-07T04:24:15;99721.41;;;10.12;100.00
46876;BME280;32866;50.160;14.768;2023-05-07T04:26:40;99683.78;;;9.63;100.00
46876;BME280;32866;50.160;14.768;2023-05-07T04:29:06;99705.53;;;9.70;100.00
46876;BME280;32866;50.160;14.768;2023-05-07T04:31:32;99734.81;;;9.90;100.00
46876;BME280;32866;50.160;14.768;2023-05-07T04:33:57;99693.34;;;9.91;100.00
46876;BME280;32866;50.160;14.768;2023-05-07T04:36:22;99701.00;;;9.80;100.00
46876;BME280;32866;50.160;14.768;2023-05-07T04:38:48;99702.31;;;9.75;100.00
46876;BME280;32866;50.160;14.768;2023-05-07T04:41:13;99745.38;;;10.08;100.00
46876;BME280;32866;50.160;14.768;2023-05-07T04:43:39;99719.19;;;10.07;100.00
46876;BME280;32866;50.160;14.768;2023-05-07T04:46:05;99726.03;;;9.98;100.00
46876;BME280;32866;50.160;14.768;2023-05-07T04:48:30;99745.56;;;10.17;100.00
46876;BME280;32866;50.160;14.768;2023-05-07T04:50:56;99729.13;;;10.00;100.00
46876;BME280;32866;50.160;14.768;2023-05-07T04:53:21;99741.19;;;10.19;100.00
46876;BME280;32866;50.160;14.768;2023-05-07T04:55:47;99749.84;;;10.18;100.00
46876;BME280;32866;50.160;14.768;2023-05-07T04:58:12;99760.44;;;10.36;100.00
46876;BME280;32866;50.160;14.768;2023-05-07T05:00:38;99761.34;;;10.29;100.00
46876;BME280;32866;50.160;14.768;2023-05-07T05:03:04;99749.22;;;10.10;100.00
46876;BME280;32866;50.160;14.768;2023-05-07T05:05:30;99742.97;;;10.10;100.00
46876;BME280;32866;50.160;14.768;2023-05-07T05:07:55;99765.25;;;10.28;100.00
46876;BME280;32866;50.160;14.768;2023-05-07T05:10:22;99763.66;;;10.31;100.00
46876;BME280;32866;50.160;14.768;2023-05-07T05:12:47;99744.69;;;10.20;100.00
46876;BME280;32866;50.160;14.768;2023-05-07T05:15:12;99762.09;;;10.30;100.00
46876;BME280;32866;50.160;14.768;2023-05-07T05:17:38;99719.28;;;10.03;100.00
46876;BME280;32866;50.160;14.768;2023-05-07T05:20:04;99759.53;;;10.23;100.00
46876;BME280;32866;50.160;14.768;2023-05-07T05:22:30;99748.78;;;10.12;100.00
46876;BME280;32866;50.160;14.768;2023-05-07T05:24:56;99749.94;;;10.31;100.00
46876;BME280;32866;50.160;14.768;2023-05-07T05:27:22;99772.56;;;10.35;100.00
46876;BME280;32866;50.160;14.768;2023-05-07T05:29:47;99783.59;;;10.31;100.00
46876;BME280;32866;50.160;14.768;2023-05-07T05:32:12;99754.97;;;10.16;100.00
46876;BME280;32866;50.160;14.768;2023-05-07T05:34:38;99773.13;;;10.26;100.00
46876;BME280;32866;50.160;14.768;2023-05-07T05:37:03;99773.22;;;10.23;100.00
46876;BME280;32866;50.160;14.768;2023-05-07T05:39:29;99780.97;;;10.44;100.00
46876;BME280;32866;50.160;14.768;2023-05-07T05:41:54;99772.75;;;10.44;100.00
46876;BME280;32866;50.160;14.768;2023-05-07T05:44:19;99796.13;;;10.65;100.00
46876;BME280;32866;50.160;14.768;2023-05-07T05:46:45;99789.03;;;10.51;100.00
46876;BME280;32866;50.160;14.768;2023-05-07T05:49:10;99774.03;;;10.56;100.00
46876;BME280;32866;50.160;14.768;2023-05-07T05:51:36;99784.91;;;10.76;100.00
46876;BME280;32866;50.160;14.768;2023-05-07T05:54:01;99787.38;;;10.70;100.00
46876;BME280;32866;50.160;14.768;2023-05-07T05:56:26;99792.34;;;10.92;100.00
46876;BME280;32866;50.160;14.768;2023-05-07T05:58:52;99761.72;;;10.48;100.00
46876;BME280;32866;50.160;14.768;2023-05-07T06:01:18;99793.88;;;10.93;100.00
46876;BME280;32866;50.160;14.768;2023-05-07T06:03:43;99797.41;;;10.93;100.00
46876;BME280;32866;50.160;14.768;2023-05-07T06:06:09;99787.34;;;11.20;100.00
46876;BME280;32866;50.160;14.768;2023-05-07T06:08:34;99796.78;;;11.02;100.00
46876;BME280;32866;50.160;14.768;2023-05-07T06:11:01;99795.78;;;10.96;100.00
46876;BME280;32866;50.160;14.768;2023-05-07T06:13:26;99780.53;;;10.79;100.00
46876;BME280;32866;50.160;14.768;2023-05-07T06:15:51;99798.31;;;11.20;100.00
46876;BME280;32866;50.160;14.768;2023-05-07T06:18:17;99805.06;;;11.31;100.00
46876;BME280;32866;50.160;14.768;2023-05-07T06:20:42;99801.03;;;11.49;100.00
46876;BME280;32866;50.160;14.768;2023-05-07T06:23:08;99812.53;;;11.44;100.00
46876;BME280;32866;50.160;14.768;2023-05-07T06:25:33;99819.50;;;11.48;100.00
46876;BME280;32866;50.160;14.768;2023-05-07T06:27:58;99825.91;;;11.71;100.00
46876;BME280;32866;50.160;14.768;2023-05-07T06:30:24;99828.91;;;11.47;100.00
46876;BME280;32866;50.160;14.768;2023-05-07T06:32:49;99805.91;;;11.28;100.00
46876;BME280;32866;50.160;14.768;2023-05-07T06:35:14;99833.56;;;11.34;100.00
46876;BME280;32866;50.160;14.768;2023-05-07T06:37:41;99832.91;;;11.59;100.00
46876;BME280;32866;50.160;14.768;2023-05-07T06:40:08;99827.78;;;11.61;100.00
46876;BME280;32866;50.160;14.768;2023-05-07T06:42:35;99806.84;;;11.38;100.00
46876;BME280;32866;50.160;14.768;2023-05-07T06:45:00;99811.88;;;11.69;100.00
46876;BME280;32866;50.160;14.768;2023-05-07T06:47:26;99839.59;;;11.87;100.00
46876;BME280;32866;50.160;14.768;2023-05-07T06:49:51;99841.81;;;11.93;100.00
46876;BME280;32866;50.160;14.768;2023-05-07T06:52:17;99848.00;;;11.97;100.00
46876;BME280;32866;50.160;14.768;2023-05-07T06:54:42;99827.72;;;11.91;100.00
46876;BME280;32866;50.160;14.768;2023-05-07T06:57:07;99832.63;;;11.70;100.00
46876;BME280;32866;50.160;14.768;2023-05-07T06:59:33;99848.81;;;12.36;100.00
46876;BME280;32866;50.160;14.768;2023-05-07T07:01:58;99837.03;;;11.80;100.00
46876;BME280;32866;50.160;14.768;2023-05-07T07:04:24;99810.50;;;11.90;100.00
46876;BME280;32866;50.160;14.768;2023-05-07T07:06:53;99839.56;;;12.30;100.00
46876;BME280;32866;50.160;14.768;2023-05-07T07:09:18;99830.34;;;12.62;100.00
46876;BME280;32866;50.160;14.768;2023-05-07T07:11:44;99839.34;;;12.75;100.00
46876;BME280;32866;50.160;14.768;2023-05-07T07:14:09;99842.53;;;12.48;100.00
46876;BME280;32866;50.160;14.768;2023-05-07T07:16:34;99852.88;;;12.44;100.00
46876;BME280;32866;50.160;14.768;2023-05-07T07:19:00;99816.50;;;12.53;100.00
46876;BME280;32866;50.160;14.768;2023-05-07T07:21:25;99824.28;;;12.54;100.00
46876;BME280;32866;50.160;14.768;2023-05-07T07:23:50;99849.69;;;12.84;100.00
46876;BME280;32866;50.160;14.768;2023-05-07T07:26:17;99836.03;;;12.80;100.00
46876;BME280;32866;50.160;14.768;2023-05-07T07:28:46;99860.19;;;12.98;100.00
46876;BME280;32866;50.160;14.768;2023-05-07T07:31:12;99855.84;;;13.23;100.00
46876;BME280;32866;50.160;14.768;2023-05-07T07:33:37;99867.94;;;13.39;100.00
46876;BME280;32866;50.160;14.768;2023-05-07T07:36:03;99863.13;;;13.87;100.00
46876;BME280;32866;50.160;14.768;2023-05-07T07:38:28;99865.41;;;14.10;100.00
46876;BME280;32866;50.160;14.768;2023-05-07T07:40:53;99874.63;;;14.17;100.00
46876;BME280;32866;50.160;14.768;2023-05-07T07:43:19;99872.47;;;14.12;100.00
46876;BME280;32866;50.160;14.768;2023-05-07T07:45:45;99860.34;;;14.40;100.00
46876;BME280;32866;50.160;14.768;2023-05-07T07:48:11;99874.06;;;14.53;100.00
46876;BME280;32866;50.160;14.768;2023-05-07T07:50:36;99863.88;;;14.09;100.00
46876;BME280;32866;50.160;14.768;2023-05-07T07:53:02;99875.25;;;14.21;100.00
46876;BME280;32866;50.160;14.768;2023-05-07T07:55:27;99840.50;;;13.92;100.00
46876;BME280;32866;50.160;14.768;2023-05-07T07:57:52;99868.75;;;14.05;100.00
46876;BME280;32866;50.160;14.768;2023-05-07T08:00:18;99873.22;;;14.12;100.00
46876;BME280;32866;50.160;14.768;2023-05-07T08:02:43;99840.28;;;14.08;100.00
46876;BME280;32866;50.160;14.768;2023-05-07T08:05:09;99874.78;;;13.91;100.00
46876;BME280;32866;50.160;14.768;2023-05-07T08:07:34;99838.41;;;13.96;100.00
46876;BME280;32866;50.160;14.768;2023-05-07T08:09:59;99866.94;;;13.67;100.00
46876;BME280;32866;50.160;14.768;2023-05-07T08:12:25;99875.28;;;13.99;100.00
46876;BME280;32866;50.160;14.768;2023-05-07T08:14:50;99862.41;;;13.96;100.00
46876;BME280;32866;50.160;14.768;2023-05-07T08:17:16;99884.47;;;14.27;100.00
46876;BME280;32866;50.160;14.768;2023-05-07T08:19:42;99873.88;;;13.94;100.00
46876;BME280;32866;50.160;14.768;2023-05-07T08:22:08;99885.44;;;13.45;100.00
46876;BME280;32866;50.160;14.768;2023-05-07T08:24:34;99886.50;;;14.04;100.00
46876;BME280;32866;50.160;14.768;2023-05-07T08:26:59;99847.22;;;13.69;100.00
46876;BME280;32866;50.160;14.768;2023-05-07T08:29:24;99894.78;;;14.36;100.00
46876;BME280;32866;50.160;14.768;2023-05-07T08:31:50;99883.28;;;14.28;100.00
46876;BME280;32866;50.160;14.768;2023-05-07T08:34:15;99863.25;;;13.61;100.00
46876;BME280;32866;50.160;14.768;2023-05-07T08:36:40;99868.28;;;14.07;100.00
46876;BME280;32866;50.160;14.768;2023-05-07T08:39:06;99888.34;;;14.29;100.00
46876;BME280;32866;50.160;14.768;2023-05-07T08:41:32;99876.03;;;14.21;100.00
46876;BME280;32866;50.160;14.768;2023-05-07T08:43:59;99884.53;;;14.68;100.00
46876;BME280;32866;50.160;14.768;2023-05-07T08:46:25;99865.88;;;14.81;100.00
46876;BME280;32866;50.160;14.768;2023-05-07T08:48:56;99866.44;;;15.44;100.00
46876;BME280;32866;50.160;14.768;2023-05-07T08:51:21;99865.22;;;15.36;100.00
46876;BME280;32866;50.160;14.768;2023-05-07T08:53:48;99905.56;;;15.43;100.00
46876;BME280;32866;50.160;14.768;2023-05-07T08:56:14;99895.91;;;15.29;100.00
46876;BME280;32866;50.160;14.768;2023-05-07T08:58:43;99905.41;;;14.46;100.00
46876;BME280;32866;50.160;14.768;2023-05-07T09:01:13;99909.56;;;14.51;100.00
46876;BME280;32866;50.160;14.768;2023-05-07T09:03:40;99910.84;;;14.28;100.00
46876;BME280;32866;50.160;14.768;2023-05-07T09:06:05;99914.75;;;14.49;100.00
46876;BME280;32866;50.160;14.768;2023-05-07T09:08:33;99918.03;;;14.57;100.00
46876;BME280;32866;50.160;14.768;2023-05-07T09:10:58;99920.28;;;14.18;100.00
46876;BME280;32866;50.160;14.768;2023-05-07T09:13:24;99914.06;;;14.04;100.00
46876;BME280;32866;50.160;14.768;2023-05-07T09:15:49;99920.91;;;14.22;100.00
46876;BME280;32866;50.160;14.768;2023-05-07T09:18:15;99911.63;;;14.06;100.00
46876;BME280;32866;50.160;14.768;2023-05-07T09:20:40;99907.31;;;13.83;100.00
46876;BME280;32866;50.160;14.768;2023-05-07T09:23:08;99920.97;;;13.87;100.00
46876;BME280;32866;50.160;14.768;2023-05-07T09:28:09;99882.22;;;13.81;100.00
46876;BME280;32866;50.160;14.768;2023-05-07T09:30:35;99917.72;;;14.33;100.00
46876;BME280;32866;50.160;14.768;2023-05-07T09:33:02;99890.09;;;14.45;100.00
46876;BME280;32866;50.160;14.768;2023-05-07T09:35:29;99887.31;;;14.36;100.00
46876;BME280;32866;50.160;14.768;2023-05-07T09:37:57;99911.47;;;14.95;100.00
46876;BME280;32866;50.160;14.768;2023-05-07T09:40:26;99910.22;;;14.96;100.00
46876;BME280;32866;50.160;14.768;2023-05-07T09:42:53;99924.47;;;14.94;100.00
46876;BME280;32866;50.160;14.768;2023-05-07T09:45:24;99917.06;;;15.41;100.00
46876;BME280;32866;50.160;14.768;2023-05-07T09:47:54;99919.50;;;15.20;100.00
46876;BME280;32866;50.160;14.768;2023-05-07T09:50:24;99913.44;;;14.94;100.00
46876;BME280;32866;50.160;14.768;2023-05-07T09:52:50;99906.31;;;14.43;100.00
46876;BME280;32866;50.160;14.768;2023-05-07T09:55:17;99919.81;;;14.51;100.00
46876;BME280;32866;50.160;14.768;2023-05-07T09:57:44;99901.78;;;14.27;100.00
46876;BME280;32866;50.160;14.768;2023-05-07T10:00:10;99920.19;;;14.08;100.00
46876;BME280;32866;50.160;14.768;2023-05-07T10:02:36;99920.38;;;13.70;100.00
46876;BME280;32866;50.160;14.768;2023-05-07T10:05:02;99905.84;;;13.34;100.00
46876;BME280;32866;50.160;14.768;2023-05-07T10:07:28;99927.63;;;13.42;100.00
46876;BME280;32866;50.160;14.768;2023-05-07T10:09:54;99932.81;;;13.40;100.00
46876;BME280;32866;50.160;14.768;2023-05-07T10:12:19;99920.47;;;13.31;100.00
46876;BME280;32866;50.160;14.768;2023-05-07T10:14:45;99920.34;;;13.48;100.00
46876;BME280;32866;50.160;14.768;2023-05-07T10:17:13;99924.03;;;13.54;100.00
46876;BME280;32866;50.160;14.768;2023-05-07T10:19:38;99928.53;;;13.61;100.00
46876;BME280;32866;50.160;14.768;2023-05-07T10:22:05;99932.66;;;13.56;100.00
46876;BME280;32866;50.160;14.768;2023-05-07T10:24:35;99920.59;;;13.41;100.00
46876;BME280;32866;50.160;14.768;2023-05-07T10:27:10;99919.09;;;13.49;100.00
46876;BME280;32866;50.160;14.768;2023-05-07T10:34:54;99924.75;;;13.45;100.00
46876;BME280;32866;50.160;14.768;2023-05-07T10:37:21;99935.34;;;13.34;100.00
46876;BME280;32866;50.160;14.768;2023-05-07T10:39:47;99930.06;;;13.14;100.00
46876;BME280;32866;50.160;14.768;2023-05-07T10:42:14;99922.78;;;13.20;100.00
46876;BME280;32866;50.160;14.768;2023-05-07T10:44:40;99933.56;;;13.27;100.00
46876;BME280;32866;50.160;14.768;2023-05-07T10:47:09;99920.41;;;13.57;100.00
46876;BME280;32866;50.160;14.768;2023-05-07T10:49:37;99900.50;;;13.53;100.00
46876;BME280;32866;50.160;14.768;2023-05-07T10:52:23;99929.75;;;13.72;100.00
46876;BME280;32866;50.160;14.768;2023-05-07T10:55:20;99932.44;;;14.07;100.00
46876;BME280;32866;50.160;14.768;2023-05-07T10:57:50;99926.41;;;14.22;100.00
46876;BME280;32866;50.160;14.768;2023-05-07T11:05:24;99918.91;;;14.76;100.00
46876;BME280;32866;50.160;14.768;2023-05-07T11:08:03;99923.22;;;14.86;100.00
46876;BME280;32866;50.160;14.768;2023-05-07T11:10:49;99936.31;;;14.95;100.00
46876;BME280;32866;50.160;14.768;2023-05-07T11:13:15;99946.84;;;14.87;100.00
46876;BME280;32866;50.160;14.768;2023-05-07T11:15:46;99934.13;;;14.90;100.00
46876;BME280;32866;50.160;14.768;2023-05-07T11:18:14;99929.53;;;14.96;100.00
46876;BME280;32866;50.160;14.768;2023-05-07T11:26:15;99909.31;;;15.08;100.00
46876;BME280;32866;50.160;14.768;2023-05-07T11:28:42;99939.13;;;15.23;100.00
46876;BME280;32866;50.160;14.768;2023-05-07T11:31:08;99929.69;;;15.61;100.00
46876;BME280;32866;50.160;14.768;2023-05-07T11:33:35;99932.00;;;15.81;100.00
46876;BME280;32866;50.160;14.768;2023-05-07T11:36:03;99934.56;;;15.56;100.00
46876;BME280;32866;50.160;14.768;2023-05-07T11:38:29;99931.53;;;15.64;100.00
46876;BME280;32866;50.160;14.768;2023-05-07T11:40:59;99914.97;;;15.91;100.00
46876;BME280;32866;50.160;14.768;2023-05-07T11:43:29;99932.28;;;16.29;100.00
46876;BME280;32866;50.160;14.768;2023-05-07T11:45:54;99926.44;;;16.18;100.00
46876;BME280;32866;50.160;14.768;2023-05-07T11:48:21;99936.03;;;16.50;100.00
46876;BME280;32866;50.160;14.768;2023-05-07T11:50:54;99930.97;;;16.58;100.00
46876;BME280;32866;50.160;14.768;2023-05-07T11:53:25;99935.56;;;16.61;100.00
46876;BME280;32866;50.160;14.768;2023-05-07T11:55:56;99933.31;;;16.41;100.00
46876;BME280;32866;50.160;14.768;2023-05-07T11:58:23;99942.78;;;16.58;100.00
46876;BME280;32866;50.160;14.768;2023-05-07T12:00:49;99932.16;;;16.66;100.00
46876;BME280;32866;50.160;14.768;2023-05-07T12:03:15;99935.03;;;16.81;100.00
46876;BME280;32866;50.160;14.768;2023-05-07T12:05:40;99930.50;;;17.02;100.00
46876;BME280;32866;50.160;14.768;2023-05-07T12:08:07;99937.03;;;17.14;100.00
46876;BME280;32866;50.160;14.768;2023-05-07T12:10:32;99925.59;;;16.54;100.00
46876;BME280;32866;50.160;14.768;2023-05-07T12:12:58;99904.63;;;16.29;100.00
46876;BME280;32866;50.160;14.768;2023-05-07T12:15:23;99932.88;;;16.85;100.00
46876;BME280;32866;50.160;14.768;2023-05-07T12:17:48;99945.38;;;16.71;100.00
46876;BME280;32866;50.160;14.768;2023-05-07T12:20:14;99907.41;;;16.20;100.00
46876;BME280;32866;50.160;14.768;2023-05-07T12:22:40;99939.91;;;16.43;100.00
46876;BME280;32866;50.160;14.768;2023-05-07T12:25:06;99958.13;;;16.68;100.00
46876;BME280;32866;50.160;14.768;2023-05-07T12:27:31;99938.06;;;16.92;100.00
46876;BME280;32866;50.160;14.768;2023-05-07T12:29:57;99943.63;;;16.83;100.00
46876;BME280;32866;50.160;14.768;2023-05-07T12:32:24;99940.66;;;16.53;100.00
46876;BME280;32866;50.160;14.768;2023-05-07T12:34:50;99902.97;;;16.13;100.00
46876;BME280;32866;50.160;14.768;2023-05-07T12:37:16;99934.28;;;16.19;100.00
46876;BME280;32866;50.160;14.768;2023-05-07T12:39:48;99945.81;;;16.69;100.00
46876;BME280;32866;50.160;14.768;2023-05-07T12:42:19;99943.28;;;16.99;100.00
46876;BME280;32866;50.160;14.768;2023-05-07T12:44:48;99904.19;;;16.64;100.00
46876;BME280;32866;50.160;14.768;2023-05-07T12:47:14;99944.38;;;16.93;100.00
46876;BME280;32866;50.160;14.768;2023-05-07T12:49:40;99915.53;;;17.33;97.46
46876;BME280;32866;50.160;14.768;2023-05-07T12:52:06;99939.75;;;17.86;98.94
46876;BME280;32866;50.160;14.768;2023-05-07T12:54:37;99950.41;;;17.88;97.66
46876;BME280;32866;50.160;14.768;2023-05-07T12:57:03;99940.47;;;17.96;99.68